Time;durP1;ratioP1;P1;durP2;ratioP2;P2;SDS_P1;SDS_P2;PMS_P1;PMS_P2;Temp;Humidity;BMP_temperature;BMP_pressure;BME280_temperature;BME280_humidity;BME280_pressure;Samples;Min_cycle;Max_cycle;Signal;HPM_P1;HPM_P2
2021/06/12 00:01:44;;;;;;;10.40;9.40;;;21.60;1.00;;;;;;4969791;28;20460;-81
2021/06/12 00:04:12;;;;;;;8.30;7.43;;;21.50;1.00;;;;;;4973766;28;20483;-81
2021/06/12 00:06:39;;;;;;;8.53;7.83;;;21.50;1.00;;;;;;4971872;28;20459;-81
2021/06/12 00:09:08;;;;;;;8.07;6.80;;;21.50;1.00;;;;;;4958140;28;20463;-81
2021/06/12 00:11:36;;;;;;;8.97;8.10;;;21.50;1.00;;;;;;4963495;28;20475;-82
2021/06/12 00:14:05;;;;;;;10.83;9.43;;;21.50;1.00;;;;;;4970362;28;20458;-82
2021/06/12 00:16:32;;;;;;;8.47;7.77;;;21.50;1.00;;;;;;4971689;28;20469;-82
2021/06/12 00:19:00;;;;;;;9.30;7.77;;;21.40;1.00;;;;;;4972238;28;20578;-81
2021/06/12 00:21:27;;;;;;;8.90;8.20;;;21.40;1.00;;;;;;4966066;28;20491;-81
2021/06/12 00:23:55;;;;;;;8.40;7.70;;;21.40;1.00;;;;;;4966863;28;20512;-83
2021/06/12 00:26:24;;;;;;;9.10;8.47;;;21.40;1.00;;;;;;4969222;28;20534;-80
2021/06/12 00:28:52;;;;;;;8.37;7.63;;;21.40;1.00;;;;;;4971520;28;20562;-82
2021/06/12 00:31:19;;;;;;;8.80;8.10;;;21.30;1.00;;;;;;4969217;28;20471;-81
2021/06/12 00:33:47;;;;;;;8.13;7.43;;;21.30;1.00;;;;;;4970908;28;20493;-80
2021/06/12 00:36:14;;;;;;;8.07;7.37;;;21.30;1.00;;;;;;4969114;28;20455;-80
2021/06/12 00:38:42;;;;;;;8.60;7.80;;;21.30;1.00;;;;;;4970238;28;20487;-81
2021/06/12 00:41:10;;;;;;;9.10;8.33;;;21.20;1.00;;;;;;4972692;28;20502;-81
2021/06/12 00:43:41;;;;;;;9.07;8.13;;;21.20;1.00;;;;;;4968948;28;20936;-83
2021/06/12 00:46:08;;;;;;;11.20;10.30;;;21.20;1.00;;;;;;4961573;28;20451;-80
2021/06/12 00:48:37;;;;;;;8.27;7.67;;;21.20;1.00;;;;;;4967860;28;20534;-82
2021/06/12 00:51:05;;;;;;;8.70;7.73;;;21.10;1.00;;;;;;4970909;28;21028;-81
2021/06/12 00:53:40;;;;;;;9.07;8.30;;;21.10;1.00;;;;;;4970010;28;20480;-81
2021/06/12 00:56:09;;;;;;;8.03;7.27;;;21.10;1.00;;;;;;4967267;28;20857;-84
2021/06/12 00:58:42;;;;;;;7.80;7.20;;;21.10;1.00;;;;;;4953331;28;20511;-82
2021/06/12 01:01:11;;;;;;;9.17;8.47;;;21.10;1.00;;;;;;4961403;28;20460;-81
2021/06/12 01:03:40;;;;;;;8.87;8.07;;;21.10;1.00;;;;;;4967966;28;20471;-82
2021/06/12 01:06:09;;;;;;;8.50;7.80;;;21.00;1.00;;;;;;4962206;28;21029;-79
2021/06/12 01:08:37;;;;;;;7.33;6.70;;;21.00;1.00;;;;;;4970888;28;20466;-81
2021/06/12 01:11:06;;;;;;;8.83;7.93;;;21.00;1.00;;;;;;4969621;28;20466;-80
2021/06/12 01:13:43;;;;;;;8.43;7.80;;;21.00;1.00;;;;;;4966849;28;20455;-79
2021/06/12 01:16:22;;;;;;;8.63;7.73;;;20.90;1.00;;;;;;4974572;28;20473;-80
2021/06/12 01:18:52;;;;;;;8.80;8.10;;;21.00;1.00;;;;;;4970428;28;20486;-80
2021/06/12 01:21:34;;;;;;;8.70;8.10;;;20.90;1.00;;;;;;4969213;28;20518;-81
2021/06/12 01:24:30;;;;;;;8.23;7.47;;;20.90;1.00;;;;;;4958734;28;20460;-81
2021/06/12 01:27:24;;;;;;;9.57;8.57;;;20.90;1.00;;;;;;4971411;28;20474;-80
2021/06/12 01:30:13;;;;;;;9.17;8.27;;;20.90;1.00;;;;;;4967695;28;20478;-81
2021/06/12 01:32:43;;;;;;;8.90;8.07;;;20.80;1.00;;;;;;4961651;28;20467;-81
2021/06/12 01:35:18;;;;;;;11.23;7.77;;;20.80;1.00;;;;;;4971026;28;21019;-84
2021/06/12 01:37:47;;;;;;;7.17;6.67;;;20.80;1.00;;;;;;4971270;28;20458;-81
2021/06/12 01:40:15;;;;;;;8.20;7.40;;;20.70;1.00;;;;;;4958906;28;20537;-79
2021/06/12 01:42:47;;;;;;;8.50;7.80;;;20.70;1.00;;;;;;4970524;28;20525;-81
2021/06/12 01:45:17;;;;;;;8.10;7.40;;;20.70;1.00;;;;;;4957714;28;20543;-82
2021/06/12 01:47:46;;;;;;;7.40;6.90;;;20.70;1.00;;;;;;4966964;28;20468;-82
2021/06/12 01:50:16;;;;;;;7.43;6.93;;;20.70;1.00;;;;;;4964236;28;20484;-82
2021/06/12 01:52:45;;;;;;;8.63;7.73;;;20.70;1.00;;;;;;4969697;28;20537;-82
2021/06/12 01:55:15;;;;;;;8.20;7.60;;;20.70;1.00;;;;;;4971935;28;20522;-81
2021/06/12 01:57:43;;;;;;;8.93;8.13;;;20.60;1.00;;;;;;4960536;28;20466;-82
2021/06/12 02:00:13;;;;;;;8.37;7.57;;;20.60;1.00;;;;;;4964340;28;20799;-83
2021/06/12 02:02:43;;;;;;;9.43;8.47;;;20.60;1.00;;;;;;4969569;28;20877;-82
2021/06/12 02:05:14;;;;;;;10.00;7.70;;;20.60;1.00;;;;;;4971901;28;20455;-83
2021/06/12 02:07:44;;;;;;;8.50;7.67;;;20.60;1.00;;;;;;4968808;28;20510;-82
2021/06/12 02:10:13;;;;;;;8.80;8.00;;;20.60;1.00;;;;;;4971687;28;20479;-81
2021/06/12 02:12:41;;;;;;;8.17;7.47;;;20.60;1.00;;;;;;4968324;28;20448;-81
2021/06/12 02:15:10;;;;;;;8.80;8.00;;;20.60;1.00;;;;;;4959970;28;20981;-82
2021/06/12 02:17:38;;;;;;;7.70;7.10;;;20.60;1.00;;;;;;4970410;28;20527;-81
2021/06/12 02:20:10;;;;;;;7.50;7.00;;;20.60;1.00;;;;;;4971725;28;20491;-83
2021/06/12 02:22:43;;;;;;;8.00;7.40;;;20.50;1.00;;;;;;4954850;28;20518;-82
2021/06/12 02:25:11;;;;;;;9.63;8.83;;;20.50;1.00;;;;;;4974417;28;20490;-83
2021/06/12 02:27:42;;;;;;;9.07;8.27;;;20.50;1.00;;;;;;4977167;28;20463;-80
2021/06/12 02:30:11;;;;;;;9.93;9.00;;;20.50;1.00;;;;;;4980698;28;20486;-81
2021/06/12 02:32:42;;;;;;;8.83;7.97;;;20.50;1.00;;;;;;4974494;28;20467;-81
2021/06/12 02:35:12;;;;;;;9.63;8.40;;;20.40;1.00;;;;;;4978209;28;20451;-82
2021/06/12 02:37:42;;;;;;;8.43;7.73;;;20.40;1.00;;;;;;4972716;28;20455;-81
2021/06/12 02:40:11;;;;;;;9.63;8.80;;;20.40;1.00;;;;;;4975923;28;20537;-80
2021/06/12 02:42:38;;;;;;;8.97;8.27;;;20.40;1.00;;;;;;4972780;28;20459;-80
2021/06/12 02:45:09;;;;;;;8.73;7.97;;;20.40;1.00;;;;;;4974777;28;20485;-81
2021/06/12 02:47:40;;;;;;;10.17;9.13;;;20.30;1.00;;;;;;4966770;28;20451;-81
2021/06/12 02:50:11;;;;;;;23.67;14.53;;;20.30;1.00;;;;;;4966738;28;20467;-80
2021/06/12 02:52:40;;;;;;;11.90;10.40;;;20.30;1.00;;;;;;4957710;28;20458;-80
2021/06/12 02:55:10;;;;;;;8.20;7.47;;;20.30;1.00;;;;;;4970263;28;20535;-80
2021/06/12 02:57:40;;;;;;;8.13;7.53;;;20.30;1.00;;;;;;4969596;28;20454;-79
2021/06/12 03:00:09;;;;;;;8.57;7.77;;;20.30;1.00;;;;;;4967186;28;20475;-80
2021/06/12 03:02:40;;;;;;;9.00;8.33;;;20.20;4.40;;;;;;4958327;28;20802;-79
2021/06/12 03:05:14;;;;;;;8.90;8.10;;;20.20;1.00;;;;;;4968294;28;20541;-79
2021/06/12 03:07:45;;;;;;;8.87;8.17;;;20.20;1.00;;;;;;4968451;28;20535;-80
2021/06/12 03:10:14;;;;;;;9.07;8.37;;;20.20;1.00;;;;;;4968458;28;20552;-78
2021/06/12 03:12:43;;;;;;;8.97;8.27;;;20.20;1.00;;;;;;4967448;28;20459;-80
2021/06/12 03:15:12;;;;;;;8.73;8.03;;;20.20;1.00;;;;;;4952849;28;20541;-81
2021/06/12 03:17:40;;;;;;;7.10;6.60;;;20.10;2.90;;;;;;4967657;28;20990;-80
2021/06/12 03:20:09;;;;;;;9.83;8.57;;;20.10;2.10;;;;;;4971112;28;20481;-80
2021/06/12 03:22:39;;;;;;;9.30;8.50;;;20.10;4.90;;;;;;4976287;28;20581;-82
2021/06/12 03:25:09;;;;;;;9.23;8.50;;;20.10;8.70;;;;;;4969324;28;20494;-80
2021/06/12 03:27:37;;;;;;;10.00;9.10;;;20.10;12.90;;;;;;4968647;28;20474;-79
2021/06/12 03:30:06;;;;;;;9.53;8.83;;;20.00;43.10;;;;;;4974084;28;20531;-80
2021/06/12 03:32:34;;;;;;;8.17;7.47;;;20.10;26.70;;;;;;4970933;28;20878;-80
2021/06/12 03:35:03;;;;;;;9.30;8.53;;;20.10;30.90;;;;;;4972627;28;20682;-78
2021/06/12 03:37:32;;;;;;;9.70;8.80;;;20.00;24.50;;;;;;4980229;28;20449;-81
2021/06/12 03:40:02;;;;;;;9.23;8.50;;;20.00;19.90;;;;;;4977632;28;20471;-79
2021/06/12 03:42:30;;;;;;;10.27;9.37;;;20.10;15.00;;;;;;4986275;28;20454;-80
2021/06/12 03:45:01;;;;;;;9.47;8.67;;;20.00;14.80;;;;;;4975871;28;20883;-77
2021/06/12 03:47:30;;;;;;;9.10;8.40;;;20.10;3.70;;;;;;4971335;28;20585;-81
2021/06/12 03:49:58;;;;;;;9.57;8.73;;;20.00;11.60;;;;;;4967113;28;21065;-80
2021/06/12 03:52:28;;;;;;;8.77;8.10;;;20.00;24.80;;;;;;4971498;28;20814;-81
2021/06/12 03:54:57;;;;;;;9.50;8.77;;;20.00;13.30;;;;;;4971844;28;20965;-82
2021/06/12 03:57:26;;;;;;;11.03;8.60;;;20.00;47.70;;;;;;4990682;28;20465;-79
2021/06/12 03:59:54;;;;;;;9.00;8.20;;;20.00;39.90;;;;;;4988898;28;21026;-80
2021/06/12 04:02:22;;;;;;;9.23;8.60;;;20.00;37.90;;;;;;4978094;28;20470;-82
2021/06/12 04:04:50;;;;;;;9.60;8.80;;;20.00;36.60;;;;;;4974639;28;20450;-80
2021/06/12 04:07:17;;;;;;;9.33;8.40;;;20.00;33.80;;;;;;4978914;28;20463;-79
2021/06/12 04:09:45;;;;;;;11.40;8.77;;;20.00;31.10;;;;;;4982263;28;20508;-80
2021/06/12 04:12:14;;;;;;;9.13;8.30;;;20.00;35.00;;;;;;4969517;28;20818;-79
2021/06/12 04:14:43;;;;;;;9.43;8.60;;;20.00;40.90;;;;;;4977368;28;20459;-79
2021/06/12 04:17:10;;;;;;;9.70;8.90;;;19.90;52.40;;;;;;4979321;28;20464;-78
2021/06/12 04:19:39;;;;;;;9.75;9.00;;;19.90;62.80;;;;;;4977809;28;20532;-78
2021/06/12 04:22:06;;;;;;;10.20;9.40;;;20.00;62.60;;;;;;4976179;28;20534;-81
2021/06/12 04:24:34;;;;;;;10.00;9.00;;;19.90;99.90;;;;;;4974747;28;20215;-78
2021/06/12 04:27:02;;;;;;;9.33;8.50;;;20.00;88.20;;;;;;4975783;28;20463;-78
2021/06/12 04:29:29;;;;;;;8.60;7.90;;;20.00;61.80;;;;;;4967801;28;21293;-79
2021/06/12 04:31:58;;;;;;;8.87;8.00;;;20.00;41.40;;;;;;4969665;28;95289;-80
2021/06/12 04:34:26;;;;;;;8.40;7.80;;;20.00;43.10;;;;;;4970731;28;20467;-78
2021/06/12 04:36:54;;;;;;;8.70;7.80;;;20.00;61.90;;;;;;4973920;28;20986;-78
2021/06/12 04:39:22;;;;;;;9.47;8.77;;;20.00;89.70;;;;;;4970403;28;20517;-78
2021/06/12 04:41:49;;;;;;;9.63;8.83;;;20.00;99.90;;;;;;4966535;28;20494;-79
2021/06/12 04:44:17;;;;;;;9.00;8.30;;;19.90;99.90;;;;;;4963934;28;20900;-78
2021/06/12 04:46:45;;;;;;;10.60;9.60;;;19.80;99.90;;;;;;4971194;28;20454;-79
2021/06/12 04:49:15;;;;;;;9.60;8.80;;;19.90;99.90;;;;;;4973448;28;20482;-77
2021/06/12 04:51:43;;;;;;;8.10;7.40;;;19.90;99.90;;;;;;4979656;28;20475;-79
2021/06/12 04:54:11;;;;;;;8.97;8.20;;;20.00;99.90;;;;;;4982879;28;20454;-77
2021/06/12 04:56:38;;;;;;;8.50;7.90;;;20.00;99.90;;;;;;4974100;28;20470;-78
2021/06/12 04:59:06;;;;;;;9.57;8.67;;;20.10;99.90;;;;;;4975731;28;21033;-77
2021/06/12 05:01:34;;;;;;;9.30;8.40;;;20.00;99.90;;;;;;4975787;28;20950;-76
2021/06/12 05:04:01;;;;;;;10.57;9.77;;;20.00;99.90;;;;;;4966905;28;20942;-83
2021/06/12 05:06:30;;;;;;;10.13;9.23;;;20.10;99.90;;;;;;4982519;28;20686;-79
2021/06/12 05:08:58;;;;;;;10.40;9.50;;;20.10;99.90;;;;;;4985130;28;20494;-81
2021/06/12 05:11:27;;;;;;;10.40;9.40;;;20.20;99.90;;;;;;4972880;28;21216;-83
2021/06/12 05:13:54;;;;;;;9.57;8.77;;;20.20;99.90;;;;;;4973193;28;20459;-80
2021/06/12 05:16:22;;;;;;;10.27;9.27;;;20.20;99.90;;;;;;4970251;28;20466;-80
2021/06/12 05:18:50;;;;;;;9.30;8.50;;;20.20;99.90;;;;;;4971793;28;20463;-80
2021/06/12 05:21:18;;;;;;;12.00;9.10;;;20.30;99.90;;;;;;4970864;28;20455;-82
2021/06/12 05:23:47;;;;;;;11.63;9.07;;;20.30;99.90;;;;;;4977070;28;20935;-79
2021/06/12 05:26:15;;;;;;;10.57;9.47;;;20.40;99.90;;;;;;4985998;28;20459;-80
2021/06/12 05:28:42;;;;;;;9.23;8.43;;;20.40;99.90;;;;;;4974737;28;20544;-81
2021/06/12 05:31:10;;;;;;;8.77;8.17;;;20.50;99.90;;;;;;4970984;28;20452;-77
2021/06/12 05:33:37;;;;;;;10.07;9.27;;;20.50;99.90;;;;;;4971833;28;20555;-78
2021/06/12 05:36:06;;;;;;;9.20;8.40;;;20.50;99.90;;;;;;4972462;28;20737;-79
2021/06/12 05:38:33;;;;;;;9.57;8.77;;;20.60;99.90;;;;;;4991147;28;20446;-78
2021/06/12 05:41:03;;;;;;;9.43;8.73;;;20.60;99.90;;;;;;4989202;28;20512;-79
2021/06/12 05:43:31;;;;;;;9.20;8.40;;;20.60;99.90;;;;;;4989891;28;21007;-78
2021/06/12 05:45:58;;;;;;;9.07;8.37;;;20.60;99.90;;;;;;4973086;28;20458;-81
2021/06/12 05:48:26;;;;;;;9.40;8.70;;;20.70;99.90;;;;;;4989682;28;20501;-83
2021/06/12 05:50:54;;;;;;;9.43;8.73;;;20.70;99.90;;;;;;4990376;28;20446;-78
2021/06/12 05:53:21;;;;;;;8.00;7.30;;;20.70;52.20;;;;;;4983146;28;20509;-79
2021/06/12 05:55:49;;;;;;;8.37;7.67;;;20.80;9.50;;;;;;4972430;28;20451;-82
2021/06/12 05:58:18;;;;;;;8.30;7.50;;;20.80;1.00;;;;;;4990940;28;20465;-79
2021/06/12 06:00:46;;;;;;;7.17;6.60;;;20.90;1.00;;;;;;4989459;28;20470;-80
2021/06/12 06:03:14;;;;;;;8.50;7.80;;;21.00;12.90;;;;;;4971827;28;20509;-77
2021/06/12 06:05:41;;;;;;;8.10;7.40;;;21.00;1.00;;;;;;4970391;28;20489;-81
2021/06/12 06:08:09;;;;;;;8.33;7.70;;;21.00;1.00;;;;;;4971327;28;20455;-79
2021/06/12 06:10:37;;;;;;;9.40;8.67;;;21.00;1.00;;;;;;4970323;28;20484;-79
2021/06/12 06:13:05;;;;;;;8.30;7.60;;;21.00;1.00;;;;;;4983183;28;20459;-79
2021/06/12 06:15:34;;;;;;;8.13;7.50;;;21.10;1.00;;;;;;4986625;28;20458;-80
2021/06/12 06:18:02;;;;;;;8.20;7.47;;;21.10;1.00;;;;;;4971197;28;20479;-80
2021/06/12 06:20:30;;;;;;;8.13;7.43;;;21.20;1.00;;;;;;4969827;28;20499;-83
2021/06/12 06:22:58;;;;;;;7.47;6.97;;;21.10;1.00;;;;;;4971385;28;20951;-75
2021/06/12 06:25:26;;;;;;;6.87;6.37;;;21.20;1.00;;;;;;4977724;28;20494;-80
2021/06/12 06:27:54;;;;;;;7.70;7.10;;;21.20;1.00;;;;;;4989947;28;20450;-82
2021/06/12 06:30:22;;;;;;;7.50;6.70;;;21.30;1.00;;;;;;4988851;28;20478;-78
2021/06/12 06:32:51;;;;;;;8.50;7.80;;;21.40;1.00;;;;;;4978336;28;20455;-80
2021/06/12 06:35:19;;;;;;;9.80;8.93;;;21.40;1.00;;;;;;4983980;28;20473;-79
2021/06/12 06:37:47;;;;;;;7.67;7.07;;;21.50;1.00;;;;;;4975089;28;20462;-79
2021/06/12 06:40:15;;;;;;;7.00;6.40;;;21.60;1.00;;;;;;4988953;28;20563;-80
2021/06/12 06:42:43;;;;;;;8.27;7.63;;;21.60;1.00;;;;;;4979171;28;20460;-79
2021/06/12 06:45:12;;;;;;;6.80;6.27;;;21.70;1.00;;;;;;4984588;28;20798;-80
2021/06/12 06:47:40;;;;;;;7.00;6.50;;;21.80;1.00;;;;;;4973967;28;20456;-78
2021/06/12 06:50:10;;;;;;;6.60;6.10;;;21.80;1.00;;;;;;4989376;28;20519;-77
2021/06/12 06:52:38;;;;;;;7.37;6.67;;;21.80;1.00;;;;;;4980823;28;20461;-80
2021/06/12 06:55:06;;;;;;;6.40;5.97;;;21.80;1.00;;;;;;4970049;28;20851;-81
2021/06/12 06:57:34;;;;;;;6.37;5.80;;;21.90;1.00;;;;;;4968450;28;20462;-78
2021/06/12 07:00:03;;;;;;;6.80;6.30;;;22.10;1.00;;;;;;4969528;28;20486;-78
2021/06/12 07:02:30;;;;;;;7.53;6.63;;;22.20;1.00;;;;;;4970389;28;20457;-78
2021/06/12 07:04:59;;;;;;;7.13;6.53;;;22.30;1.00;;;;;;4970622;28;20966;-78
2021/06/12 07:07:28;;;;;;;6.47;5.97;;;22.40;1.00;;;;;;4970193;28;20604;-80
2021/06/12 07:09:55;;;;;;;6.23;5.70;;;22.60;1.00;;;;;;4969619;28;20482;-84
2021/06/12 07:12:23;;;;;;;6.37;5.70;;;22.70;1.00;;;;;;4970310;28;20518;-79
2021/06/12 07:14:51;;;;;;;7.60;6.03;;;22.70;1.00;;;;;;4968693;28;20840;-80
2021/06/12 07:17:19;;;;;;;7.20;6.20;;;22.70;1.00;;;;;;4968193;28;20465;-82
2021/06/12 07:19:47;;;;;;;6.90;6.23;;;22.80;1.00;;;;;;4968523;28;21037;-79
2021/06/12 07:22:14;;;;;;;6.30;5.80;;;22.80;1.00;;;;;;4969750;28;20458;-78
2021/06/12 07:24:43;;;;;;;6.03;5.47;;;22.90;1.00;;;;;;4977597;28;20446;-79
2021/06/12 07:27:13;;;;;;;6.50;5.90;;;22.90;1.00;;;;;;4982295;28;20923;-80
2021/06/12 07:29:40;;;;;;;6.50;6.00;;;23.00;1.00;;;;;;4972018;28;21101;-80
2021/06/12 07:32:08;;;;;;;6.93;6.23;;;23.00;1.00;;;;;;4986396;28;20815;-79
2021/06/12 07:34:36;;;;;;;6.70;6.00;;;23.10;1.00;;;;;;4988806;28;20457;-82
2021/06/12 07:37:05;;;;;;;6.67;5.30;;;23.10;1.00;;;;;;4988771;28;20430;-82
2021/06/12 07:39:33;;;;;;;5.30;4.90;;;23.20;1.00;;;;;;4971298;28;20841;-80
2021/06/12 07:42:02;;;;;;;6.33;5.83;;;23.20;1.00;;;;;;4969185;28;20479;-80
2021/06/12 07:44:30;;;;;;;5.07;4.67;;;23.30;1.00;;;;;;4969236;28;20720;-78
2021/06/12 07:46:58;;;;;;;5.60;5.10;;;23.30;1.00;;;;;;4969431;28;20447;-79
2021/06/12 07:49:26;;;;;;;5.17;4.70;;;23.40;1.00;;;;;;4969290;28;20568;-81
2021/06/12 07:51:54;;;;;;;4.97;4.57;;;23.50;1.00;;;;;;4968711;28;20450;-79
2021/06/12 07:54:22;;;;;;;5.33;4.83;;;23.50;1.00;;;;;;4969787;28;20447;-78
2021/06/12 07:56:50;;;;;;;4.70;4.40;;;23.60;1.00;;;;;;4969165;28;20455;-77
2021/06/12 07:59:19;;;;;;;5.23;4.73;;;23.60;1.00;;;;;;4968087;28;20962;-79
2021/06/12 08:01:47;;;;;;;4.20;3.90;;;23.70;1.00;;;;;;4975532;28;20893;-80
2021/06/12 08:04:15;;;;;;;4.20;3.80;;;23.70;1.00;;;;;;4990196;28;20439;-80
2021/06/12 08:06:43;;;;;;;4.20;3.80;;;23.80;1.00;;;;;;4992947;28;21139;-81
2021/06/12 08:09:10;;;;;;;4.00;3.70;;;23.90;1.00;;;;;;4978565;28;20546;-79
2021/06/12 08:11:38;;;;;;;3.50;3.30;;;23.90;1.00;;;;;;4986392;28;20450;-79
2021/06/12 08:14:06;;;;;;;4.23;3.93;;;24.00;1.00;;;;;;4993210;28;20458;-80
2021/06/12 08:16:35;;;;;;;4.47;4.17;;;24.00;1.00;;;;;;4982882;28;20513;-80
2021/06/12 08:19:03;;;;;;;4.50;4.20;;;24.10;1.00;;;;;;4973054;28;21010;-78
2021/06/12 08:21:31;;;;;;;3.43;3.23;;;24.20;1.00;;;;;;4973163;28;20482;-79
2021/06/12 08:23:59;;;;;;;3.43;3.23;;;24.20;1.00;;;;;;4972130;28;20506;-77
2021/06/12 08:26:27;;;;;;;3.27;2.97;;;24.30;1.00;;;;;;4971918;28;20462;-79
2021/06/12 08:28:55;;;;;;;2.53;2.40;;;24.30;99.90;;;;;;4971984;28;20478;-79
2021/06/12 08:31:22;;;;;;;2.40;2.30;;;24.40;99.90;;;;;;4971781;28;20794;-79
2021/06/12 08:33:52;;;;;;;3.00;2.80;;;24.40;99.90;;;;;;4973149;28;20440;-79
2021/06/12 08:36:19;;;;;;;2.20;2.10;;;24.50;99.90;;;;;;4971283;28;20458;-78
2021/06/12 08:38:47;;;;;;;3.43;3.23;;;24.50;99.90;;;;;;4977566;28;20506;-78
2021/06/12 08:41:16;;;;;;;2.80;2.60;;;24.50;99.90;;;;;;4976151;28;20506;-77
2021/06/12 08:43:44;;;;;;;2.93;2.57;;;24.50;99.90;;;;;;4952342;29;20456;-77
2021/06/12 08:46:25;;;;;;;2.63;2.43;;;24.60;99.90;;;;;;4952539;28;20436;-79
2021/06/12 08:48:55;;;;;;;2.67;2.47;;;24.70;99.90;;;;;;4953333;28;20480;-80
2021/06/12 08:51:24;;;;;;;4.00;3.70;;;24.70;99.90;;;;;;4955609;28;20819;-78
2021/06/12 08:53:52;;;;;;;2.50;2.40;;;24.70;99.90;;;;;;4972749;28;20439;-81
2021/06/12 08:56:20;;;;;;;2.63;2.43;;;24.80;99.90;;;;;;4970757;28;20451;-78
2021/06/12 08:58:48;;;;;;;2.80;2.60;;;24.80;99.90;;;;;;4971900;28;20479;-82
2021/06/12 09:01:20;;;;;;;2.60;2.40;;;24.90;99.90;;;;;;4975873;28;20524;-79
2021/06/12 09:03:48;;;;;;;2.70;2.50;;;24.90;99.90;;;;;;4983934;28;20533;-77
2021/06/12 09:06:20;;;;;;;2.83;2.57;;;25.00;99.90;;;;;;4971203;28;20467;-79
2021/06/12 09:08:48;;;;;;;2.40;2.20;;;25.00;99.90;;;;;;4972024;28;20471;-79
2021/06/12 09:11:18;;;;;;;2.17;2.00;;;25.00;99.90;;;;;;4986621;28;20459;-79
2021/06/12 09:13:47;;;;;;;3.80;2.13;;;25.00;99.90;;;;;;4981618;28;20548;-79
2021/06/12 09:16:30;;;;;;;2.47;2.10;;;25.10;99.90;;;;;;4983402;28;20443;-80
2021/06/12 09:19:18;;;;;;;2.83;2.60;;;25.10;99.90;;;;;;4970805;28;20478;-81
2021/06/12 09:21:49;;;;;;;2.47;2.27;;;25.20;99.90;;;;;;4970777;28;20534;-81
2021/06/12 09:24:25;;;;;;;2.17;2.07;;;25.20;99.90;;;;;;4971137;28;20447;-80
2021/06/12 09:26:57;;;;;;;4.07;1.90;;;25.20;99.90;;;;;;4970763;28;20553;-77
2021/06/12 09:29:34;;;;;;;2.77;2.57;;;25.30;99.90;;;;;;4971270;28;20474;-79
2021/06/12 09:32:09;;;;;;;3.13;2.20;;;25.20;99.90;;;;;;4987182;28;20442;-78
2021/06/12 09:34:37;;;;;;;3.00;2.70;;;25.30;99.90;;;;;;4971047;28;20432;-78
2021/06/12 09:37:11;;;;;;;2.53;2.33;;;25.20;99.90;;;;;;4971028;28;20458;-77
2021/06/12 09:39:55;;;;;;;2.10;1.90;;;25.20;99.90;;;;;;4971496;28;20807;-79
2021/06/12 09:42:36;;;;;;;2.43;2.23;;;25.20;99.90;;;;;;4985059;28;20562;-79
2021/06/12 09:45:05;;;;;;;2.57;2.37;;;25.20;99.90;;;;;;4969749;28;20743;-78
2021/06/12 09:47:33;;;;;;;1.90;1.80;;;25.30;99.90;;;;;;4971953;28;20509;-79
2021/06/12 09:50:02;;;;;;;2.20;1.93;;;25.30;99.90;;;;;;4971076;28;20510;-79
2021/06/12 09:52:41;;;;;;;2.03;1.93;;;25.30;99.90;;;;;;4971241;28;20432;-79
2021/06/12 09:55:09;;;;;;;2.10;1.80;;;25.30;99.90;;;;;;4970856;28;20939;-78
2021/06/12 09:57:47;;;;;;;2.90;1.97;;;25.30;99.90;;;;;;4971371;28;20451;-76
2021/06/12 10:00:16;;;;;;;2.33;2.23;;;25.40;99.90;;;;;;4970435;28;20537;-79
2021/06/12 10:02:45;;;;;;;2.83;2.40;;;25.40;99.90;;;;;;4970940;28;20883;-78
2021/06/12 10:05:15;;;;;;;3.90;2.20;;;25.50;99.90;;;;;;4970858;28;20454;-75
2021/06/12 10:07:44;;;;;;;1.80;1.70;;;25.40;99.90;;;;;;4985715;28;20522;-80
2021/06/12 10:10:15;;;;;;;4.50;1.90;;;25.50;99.90;;;;;;4985475;28;20471;-79
2021/06/12 10:12:43;;;;;;;4.57;1.53;;;25.50;99.90;;;;;;4970751;28;20977;-79
2021/06/12 10:15:12;;;;;;;2.57;2.37;;;25.60;99.90;;;;;;4969249;28;20443;-80
2021/06/12 10:17:43;;;;;;;2.20;2.00;;;25.70;99.90;;;;;;4969854;28;20442;-79
2021/06/12 10:20:13;;;;;;;1.90;1.80;;;25.70;99.90;;;;;;4970515;28;20998;-77
2021/06/12 10:22:44;;;;;;;1.90;1.80;;;25.70;99.90;;;;;;4970629;28;20534;-77
2021/06/12 10:25:14;;;;;;;2.10;1.83;;;25.80;99.90;;;;;;4974920;28;20454;-78
2021/06/12 10:27:42;;;;;;;3.63;2.20;;;25.90;99.90;;;;;;4982844;28;20467;-81
2021/06/12 10:30:12;;;;;;;2.53;2.00;;;25.90;99.90;;;;;;4970678;28;20475;-78
2021/06/12 10:32:44;;;;;;;5.23;3.27;;;25.90;99.90;;;;;;4969964;28;20436;-79
2021/06/12 10:35:16;;;;;;;2.43;2.27;;;26.00;99.90;;;;;;4977625;28;21013;-78
2021/06/12 10:38:01;;;;;;;2.10;1.90;;;25.90;99.90;;;;;;4979393;28;20451;-81
2021/06/12 10:40:38;;;;;;;1.90;1.70;;;26.00;99.90;;;;;;4969496;28;20458;-76
2021/06/12 10:43:11;;;;;;;7.43;2.77;;;26.00;99.90;;;;;;4968817;28;20481;-81
2021/06/12 10:45:39;;;;;;;2.00;1.90;;;26.00;99.90;;;;;;4970662;28;20853;-76
2021/06/12 10:48:07;;;;;;;3.33;2.20;;;26.00;99.90;;;;;;4985156;28;20512;-79
2021/06/12 10:50:42;;;;;;;3.10;2.17;;;26.10;99.90;;;;;;4971725;28;20493;-78
2021/06/12 10:53:33;;;;;;;6.87;3.00;;;26.10;99.90;;;;;;4984696;28;20989;-78
2021/06/12 10:56:03;;;;;;;3.10;2.37;;;26.20;99.90;;;;;;4987739;28;20442;-77
2021/06/12 10:58:46;;;;;;;2.27;2.07;;;26.30;99.90;;;;;;4982632;28;21019;-80
2021/06/12 11:01:22;;;;;;;2.30;2.20;;;26.30;99.90;;;;;;4981254;28;20529;-77
2021/06/12 11:04:02;;;;;;;2.30;2.20;;;26.30;99.90;;;;;;4969255;28;20443;-81
2021/06/12 11:06:40;;;;;;;1.87;1.77;;;26.40;99.90;;;;;;4969344;28;20486;-79
2021/06/12 11:09:30;;;;;;;1.80;1.70;;;26.40;99.90;;;;;;4970367;28;20478;-77
2021/06/12 11:12:00;;;;;;;3.60;2.03;;;26.40;99.90;;;;;;4969516;28;20451;-78
2021/06/12 11:14:31;;;;;;;1.90;1.80;;;26.40;99.90;;;;;;4969884;28;20819;-77
2021/06/12 11:17:18;;;;;;;1.60;1.50;;;26.40;99.90;;;;;;4967881;28;20486;-76
2021/06/12 11:20:28;;;;;;;1.50;1.40;;;26.40;99.90;;;;;;4968933;28;20475;-81
2021/06/12 11:23:03;;;;;;;2.10;2.00;;;26.50;99.90;;;;;;4969962;28;20479;-80
2021/06/12 11:25:57;;;;;;;2.30;1.80;;;26.50;99.90;;;;;;4977104;28;20497;-80
2021/06/12 11:28:33;;;;;;;1.60;1.50;;;26.60;99.90;;;;;;4941574;28;20496;-79
2021/06/12 11:31:34;;;;;;;3.37;1.57;;;26.50;99.90;;;;;;4948588;29;20459;-80
2021/06/12 11:34:26;;;;;;;2.70;1.70;;;26.60;99.90;;;;;;4872997;29;20491;-81
2021/06/12 11:37:15;;;;;;;2.53;1.40;;;26.60;99.90;;;;;;4959402;28;20459;-78
2021/06/12 11:39:52;;;;;;;1.63;1.53;;;26.50;99.90;;;;;;4990593;28;20457;-78
2021/06/12 11:42:39;;;;;;;2.00;1.90;;;26.50;99.90;;;;;;4980636;28;20527;-78
2021/06/12 11:45:18;;;;;;;1.10;1.10;;;26.50;99.90;;;;;;4976780;28;20737;-77
2021/06/12 11:47:46;;;;;;;1.73;1.00;;;26.50;99.90;;;;;;4989089;28;20716;-78
2021/06/12 11:50:14;;;;;;;1.33;1.20;;;26.50;99.90;;;;;;4973206;28;20628;-75
2021/06/12 11:52:50;;;;;;;1.20;1.10;;;26.50;99.90;;;;;;4989279;28;20530;-75
2021/06/12 11:55:19;;;;;;;1.20;1.10;;;26.60;99.90;;;;;;4972939;28;20510;-77
2021/06/12 11:57:50;;;;;;;2.53;1.10;;;26.70;99.90;;;;;;4974023;28;20474;-76
2021/06/12 12:00:29;;;;;;;1.07;1.03;;;26.70;99.90;;;;;;4972278;28;20471;-77
2021/06/12 12:03:01;;;;;;;1.40;1.30;;;26.80;99.90;;;;;;4993214;28;20484;-77
2021/06/12 12:05:34;;;;;;;1.37;1.27;;;26.80;99.90;;;;;;4983598;28;20521;-77
2021/06/12 12:08:03;;;;;;;1.50;1.40;;;26.90;99.90;;;;;;4987114;28;20981;-77
2021/06/12 12:10:31;;;;;;;1.60;1.50;;;26.90;99.90;;;;;;4986994;28;20459;-78
2021/06/12 12:13:00;;;;;;;1.50;1.40;;;26.90;99.90;;;;;;4976732;28;21001;-80
2021/06/12 12:15:40;;;;;;;1.60;1.30;;;26.90;99.90;;;;;;4981409;28;20796;-81
2021/06/12 12:18:09;;;;;;;2.60;1.20;;;27.00;99.90;;;;;;4972423;28;20457;-77
2021/06/12 12:20:42;;;;;;;2.53;1.23;;;26.90;99.90;;;;;;4972273;28;20466;-79
2021/06/12 12:23:24;;;;;;;1.67;1.57;;;26.90;99.90;;;;;;4972863;28;20998;-80
2021/06/12 12:26:04;;;;;;;1.63;1.40;;;27.00;99.90;;;;;;4975143;28;20522;-77
2021/06/12 12:28:48;;;;;;;1.50;1.17;;;27.00;99.90;;;;;;4992382;28;20434;-78
2021/06/12 12:31:17;;;;;;;1.50;1.40;;;27.00;99.90;;;;;;4992704;28;20462;-76
2021/06/12 12:33:47;;;;;;;1.33;1.23;;;27.00;99.90;;;;;;4974825;28;20950;-79
2021/06/12 12:36:15;;;;;;;2.20;1.20;;;26.90;99.90;;;;;;4971654;28;20969;-74
2021/06/12 12:38:44;;;;;;;2.17;1.53;;;27.00;99.90;;;;;;4971950;28;20517;-77
2021/06/12 12:41:12;;;;;;;1.70;1.40;;;27.00;99.90;;;;;;4972983;28;20442;-82
2021/06/12 12:43:41;;;;;;;1.27;1.17;;;27.00;99.90;;;;;;4977269;28;20536;-82
2021/06/12 12:46:09;;;;;;;1.33;1.23;;;27.00;99.90;;;;;;4981113;28;20517;-77
2021/06/12 12:48:41;;;;;;;1.43;1.30;;;27.00;99.90;;;;;;4971836;28;20440;-80
2021/06/12 12:51:09;;;;;;;1.27;1.17;;;27.00;99.90;;;;;;4975161;28;20451;-77
2021/06/12 12:53:39;;;;;;;1.10;1.07;;;27.00;99.90;;;;;;4981063;28;20510;-77
2021/06/12 12:56:08;;;;;;;1.47;1.10;;;27.00;99.90;;;;;;4992269;28;20457;-78
2021/06/12 12:58:37;;;;;;;1.40;1.30;;;27.00;99.90;;;;;;4990340;28;20450;-80
2021/06/12 13:01:08;;;;;;;1.30;1.20;;;27.00;99.90;;;;;;4990856;28;21019;-77
2021/06/12 13:03:43;;;;;;;1.80;1.10;;;27.00;99.90;;;;;;4980775;28;21019;-81
2021/06/12 13:06:31;;;;;;;0.80;0.80;;;27.00;99.90;;;;;;4989418;28;20447;-77
2021/06/12 13:09:09;;;;;;;1.17;1.07;;;27.00;99.90;;;;;;4970833;28;20808;-80